createdAt,value
2022-08-04T00:01:52.448Z,100.00
2022-08-04T00:04:34.277Z,100.00
2022-08-04T00:07:09.287Z,100.00
2022-08-04T00:09:40.530Z,100.00
2022-08-04T00:12:08.987Z,100.00
2022-08-04T00:14:38.609Z,100.00
2022-08-04T00:17:07.924Z,100.00
2022-08-04T00:19:41.911Z,100.00
2022-08-04T00:22:12.794Z,100.00
2022-08-04T00:24:41.422Z,100.00
2022-08-04T00:27:09.967Z,100.00
2022-08-04T00:29:39.493Z,100.00
2022-08-04T00:32:08.893Z,100.00
2022-08-04T00:34:37.729Z,100.00
2022-08-04T00:37:06.919Z,100.00
2022-08-04T00:39:36.904Z,100.00
2022-08-04T00:42:15.337Z,100.00
2022-08-04T00:44:49.813Z,100.00
2022-08-04T00:47:30.246Z,100.00
2022-08-04T00:50:07.619Z,100.00
2022-08-04T00:52:46.152Z,100.00
2022-08-04T00:55:24.250Z,100.00
2022-08-04T00:57:57.306Z,100.00
2022-08-04T01:00:26.111Z,100.00
2022-08-04T01:03:04.026Z,100.00
2022-08-04T01:05:37.834Z,100.00
2022-08-04T01:08:24.282Z,100.00
2022-08-04T01:11:00.412Z,100.00
2022-08-04T01:13:37.833Z,100.00
2022-08-04T01:16:07.714Z,100.00
2022-08-04T01:18:42.466Z,100.00
2022-08-04T01:21:24.319Z,100.00
2022-08-04T01:24:13.361Z,100.00
2022-08-04T01:26:57.457Z,100.00
2022-08-04T01:29:44.070Z,100.00
2022-08-04T01:32:21.067Z,100.00
2022-08-04T01:34:57.723Z,100.00
2022-08-04T01:37:32.473Z,100.00
2022-08-04T01:40:04.199Z,100.00
2022-08-04T01:42:33.748Z,100.00
2022-08-04T01:45:04.785Z,100.00
2022-08-04T01:47:35.598Z,100.00
2022-08-04T01:50:06.402Z,100.00
2022-08-04T01:52:35.938Z,100.00
2022-08-04T01:55:05.672Z,100.00
2022-08-04T01:57:37.883Z,100.00
2022-08-04T02:00:10.338Z,100.00
2022-08-04T02:02:39.830Z,100.00
2022-08-04T02:05:11.256Z,100.00
2022-08-04T02:07:43.929Z,100.00
2022-08-04T02:10:19.581Z,100.00
2022-08-04T02:12:54.997Z,100.00
2022-08-04T02:15:28.709Z,100.00
2022-08-04T02:18:01.342Z,100.00
2022-08-04T02:20:31.574Z,100.00
2022-08-04T02:23:00.337Z,100.00
2022-08-04T02:25:29.377Z,100.00
2022-08-04T02:28:03.927Z,100.00
2022-08-04T02:30:38.205Z,100.00
2022-08-04T02:33:08.757Z,100.00
2022-08-04T02:35:37.805Z,100.00
2022-08-04T02:38:12.899Z,100.00
2022-08-04T02:40:42.588Z,100.00
2022-08-04T02:43:11.453Z,100.00
2022-08-04T02:45:42.868Z,100.00
2022-08-04T02:48:31.187Z,100.00
2022-08-04T02:51:00.621Z,100.00
2022-08-04T02:53:32.485Z,100.00
2022-08-04T02:56:02.513Z,100.00
2022-08-04T02:58:33.666Z,100.00
2022-08-04T03:01:03.590Z,100.00
2022-08-04T03:03:36.041Z,100.00
2022-08-04T03:06:22.155Z,100.00
2022-08-04T03:09:02.327Z,100.00
2022-08-04T03:11:39.957Z,100.00
2022-08-04T03:14:32.179Z,100.00
2022-08-04T03:17:21.410Z,100.00
2022-08-04T03:20:13.933Z,100.00
2022-08-04T03:23:13.069Z,100.00
2022-08-04T03:25:58.994Z,100.00
2022-08-04T03:28:52.874Z,100.00
2022-08-04T03:31:51.159Z,100.00
2022-08-04T03:34:27.775Z,100.00
2022-08-04T03:37:13.280Z,100.00
2022-08-04T03:40:10.663Z,100.00
2022-08-04T03:43:02.094Z,100.00
2022-08-04T03:45:53.225Z,100.00
2022-08-04T03:48:34.442Z,100.00
2022-08-04T03:51:34.977Z,100.00
2022-08-04T03:54:20.142Z,100.00
2022-08-04T03:56:58.359Z,100.00
2022-08-04T03:59:43.188Z,100.00
2022-08-04T04:02:44.397Z,100.00
2022-08-04T04:05:31.247Z,100.00
2022-08-04T04:08:19.155Z,100.00
2022-08-04T04:11:02.290Z,100.00
2022-08-04T04:13:48.060Z,100.00
2022-08-04T04:16:29.694Z,100.00
2022-08-04T04:19:22.179Z,100.00
2022-08-04T04:22:03.504Z,100.00
2022-08-04T04:24:46.905Z,100.00
2022-08-04T04:27:20.069Z,100.00
2022-08-04T04:29:59.038Z,100.00
2022-08-04T04:32:36.887Z,100.00
2022-08-04T04:35:12.427Z,100.00
2022-08-04T04:37:51.909Z,100.00
2022-08-04T04:40:29.281Z,100.00
2022-08-04T04:43:11.553Z,100.00
2022-08-04T04:45:44.389Z,100.00
2022-08-04T04:48:19.154Z,100.00
2022-08-04T04:50:54.515Z,100.00
2022-08-04T04:53:28.717Z,100.00
2022-08-04T04:56:01.242Z,100.00
2022-08-04T04:58:33.199Z,100.00
2022-08-04T05:01:25.474Z,100.00
2022-08-04T05:04:06.943Z,100.00
2022-08-04T05:06:46.192Z,100.00
2022-08-04T05:09:28.042Z,100.00
2022-08-04T05:14:30.795Z,100.00
2022-08-04T05:15:05.853Z,100.00
2022-08-04T05:17:38.761Z,100.00
2022-08-04T05:20:09.903Z,100.00
2022-08-04T05:22:41.056Z,100.00
2022-08-04T05:25:11.402Z,100.00
2022-08-04T05:27:41.481Z,100.00
2022-08-04T05:30:10.429Z,100.00
2022-08-04T05:32:42.206Z,100.00
2022-08-04T05:35:13.794Z,100.00
2022-08-04T05:37:45.820Z,100.00
2022-08-04T05:40:30.033Z,100.00
2022-08-04T05:42:58.586Z,100.00
2022-08-04T05:45:27.907Z,100.00
2022-08-04T05:48:09.164Z,100.00
2022-08-04T05:50:38.842Z,100.00
2022-08-04T05:53:07.514Z,100.00
2022-08-04T05:55:48.865Z,100.00
2022-08-04T05:58:25.177Z,100.00
2022-08-04T06:00:53.718Z,100.00
2022-08-04T06:03:22.970Z,100.00
2022-08-04T06:05:53.234Z,100.00
2022-08-04T06:08:21.638Z,100.00
2022-08-04T06:10:51.281Z,100.00
2022-08-04T06:13:47.791Z,100.00
2022-08-04T06:16:28.656Z,100.00
2022-08-04T06:20:01.201Z,100.00
2022-08-04T06:21:49.613Z,100.00
2022-08-04T06:24:19.985Z,100.00
2022-08-04T06:26:49.491Z,100.00
2022-08-04T06:29:25.032Z,100.00
2022-08-04T06:32:27.285Z,100.00
2022-08-04T06:34:51.609Z,100.00
2022-08-04T06:37:40.851Z,100.00
2022-08-04T06:40:29.821Z,100.00
2022-08-04T06:43:00.108Z,100.00
2022-08-04T06:45:28.951Z,100.00
2022-08-04T06:47:57.417Z,100.00
2022-08-04T06:51:27.119Z,100.00
2022-08-04T06:53:17.010Z,100.00
2022-08-04T06:55:46.928Z,100.00
2022-08-04T06:58:17.073Z,100.00
2022-08-04T07:00:47.099Z,100.00
2022-08-04T07:03:16.230Z,100.00
2022-08-04T07:05:47.751Z,100.00
2022-08-04T07:08:17.990Z,100.00
2022-08-04T07:10:46.426Z,100.00
2022-08-04T07:13:14.952Z,100.00
2022-08-04T07:15:45.141Z,100.00
2022-08-04T07:18:13.402Z,100.00
2022-08-04T07:20:42.274Z,100.00
2022-08-04T07:23:12.158Z,100.00
2022-08-04T07:25:58.800Z,100.00
2022-08-04T07:28:30.858Z,100.00
2022-08-04T07:30:59.698Z,100.00
2022-08-04T07:33:28.953Z,100.00
2022-08-04T07:36:04.569Z,100.00
2022-08-04T07:38:50.626Z,100.00
2022-08-04T07:41:40.649Z,100.00
2022-08-04T07:44:09.440Z,100.00
2022-08-04T07:46:37.911Z,100.00
2022-08-04T07:49:06.867Z,100.00
2022-08-04T07:51:36.947Z,100.00
2022-08-04T07:54:05.799Z,100.00
2022-08-04T07:56:36.734Z,100.00
2022-08-04T07:59:06.367Z,98.26
2022-08-04T08:01:35.575Z,90.31
2022-08-04T08:04:04.193Z,98.38
2022-08-04T08:06:35.658Z,89.57
2022-08-04T08:09:13.812Z,94.26
2022-08-04T08:12:38.002Z,89.47
2022-08-04T08:14:35.132Z,86.12
2022-08-04T08:17:04.537Z,95.68
2022-08-04T08:19:33.063Z,88.83
2022-08-04T08:22:02.059Z,82.02
2022-08-04T08:24:31.093Z,82.45
2022-08-04T08:27:01.484Z,87.38
2022-08-04T08:29:30.211Z,82.97
2022-08-04T08:32:02.732Z,87.57
2022-08-04T08:34:35.386Z,91.84
2022-08-04T08:37:06.474Z,93.13
2022-08-04T08:39:37.911Z,86.93
2022-08-04T08:42:21.109Z,85.55
2022-08-04T08:45:17.977Z,81.63
2022-08-04T08:48:07.357Z,84.97
2022-08-04T08:50:53.615Z,82.57
2022-08-04T08:53:29.163Z,79.60
2022-08-04T08:56:10.370Z,77.69
2022-08-04T08:58:46.104Z,80.23
2022-08-04T09:01:29.005Z,72.63
2022-08-04T09:04:23.796Z,78.72
2022-08-04T09:07:02.660Z,76.44
2022-08-04T09:09:42.081Z,81.75
2022-08-04T09:12:14.248Z,79.90
2022-08-04T09:14:46.759Z,78.64
2022-08-04T09:17:28.705Z,78.17
2022-08-04T09:20:00.851Z,82.12
2022-08-04T09:22:35.365Z,82.08
2022-08-04T09:25:05.075Z,82.98
2022-08-04T09:27:39.723Z,86.80
2022-08-04T09:30:09.039Z,84.31
2022-08-04T09:32:43.260Z,80.62
2022-08-04T09:35:19.725Z,80.10
2022-08-04T09:37:53.717Z,77.45
2022-08-04T09:40:29.397Z,76.63
2022-08-04T09:43:19.853Z,76.34
2022-08-04T09:45:51.863Z,75.37
2022-08-04T09:48:29.698Z,77.33
2022-08-04T09:51:00.619Z,76.51
2022-08-04T09:53:37.252Z,72.86
2022-08-04T09:56:09.932Z,72.04
2022-08-04T09:58:47.055Z,68.47
2022-08-04T10:01:22.425Z,69.83
2022-08-04T10:03:54.322Z,71.68
2022-08-04T10:06:35.315Z,68.30
2022-08-04T10:09:10.413Z,69.36
2022-08-04T10:11:55.519Z,71.05
2022-08-04T10:14:40.159Z,66.29
2022-08-04T10:17:17.129Z,67.84
2022-08-04T10:19:47.416Z,68.53
2022-08-04T10:22:29.335Z,71.07
2022-08-04T10:25:05.042Z,70.34
2022-08-04T10:27:55.790Z,70.86
2022-08-04T10:30:25.015Z,70.28
2022-08-04T10:32:57.022Z,71.73
2022-08-04T10:35:28.199Z,74.27
2022-08-04T10:38:02.473Z,76.82
2022-08-04T10:40:40.914Z,75.18
2022-08-04T10:43:22.581Z,72.81
2022-08-04T10:45:58.260Z,69.98
2022-08-04T10:48:34.757Z,72.90
2022-08-04T10:51:07.456Z,70.39
2022-08-04T10:53:39.405Z,72.58
2022-08-04T10:56:12.343Z,76.35
2022-08-04T10:58:48.149Z,78.91
2022-08-04T11:01:50.696Z,81.02
2022-08-04T11:04:13.797Z,79.13
2022-08-04T11:06:45.312Z,77.42
2022-08-04T11:09:15.168Z,74.95
2022-08-04T11:12:00.566Z,71.97
2022-08-04T11:14:34.714Z,70.98
2022-08-04T11:17:06.802Z,65.96
2022-08-04T11:19:45.247Z,65.44
2022-08-04T11:22:25.032Z,66.71
2022-08-04T11:24:55.288Z,66.58
2022-08-04T11:27:27.229Z,61.27
2022-08-04T11:30:02.677Z,62.67
2022-08-04T11:32:36.069Z,59.06
2022-08-04T11:35:04.774Z,62.44
2022-08-04T11:37:42.838Z,62.33
2022-08-04T11:40:12.850Z,64.87
2022-08-04T11:42:43.223Z,65.21
2022-08-04T11:45:15.004Z,64.84
2022-08-04T11:47:52.553Z,63.51
2022-08-04T11:50:23.306Z,64.21
2022-08-04T11:52:55.017Z,65.05
2022-08-04T11:55:24.735Z,56.50
2022-08-04T11:57:54.391Z,56.08
2022-08-04T12:00:23.689Z,54.08
2022-08-04T12:03:00.112Z,53.14
2022-08-04T12:05:35.777Z,54.85
2022-08-04T12:08:19.619Z,60.35
2022-08-04T12:10:52.839Z,60.12
2022-08-04T12:13:30.083Z,60.87
2022-08-04T12:16:02.963Z,63.99
2022-08-04T12:18:34.700Z,65.52
2022-08-04T12:21:07.203Z,64.62
2022-08-04T12:23:40.562Z,67.11
2022-08-04T12:26:12.151Z,66.69
2022-08-04T12:29:08.450Z,64.33
2022-08-04T12:31:36.869Z,68.48
2022-08-04T12:34:08.536Z,68.16
2022-08-04T12:36:39.274Z,68.70
2022-08-04T12:39:11.810Z,71.39
2022-08-04T12:41:41.838Z,70.29
2022-08-04T12:44:36.463Z,74.27
2022-08-04T12:47:26.227Z,70.55
2022-08-04T12:49:56.202Z,70.45
2022-08-04T12:52:59.113Z,73.95
2022-08-04T12:55:24.006Z,77.62
2022-08-04T12:57:53.103Z,72.13
2022-08-04T13:00:29.535Z,73.42
2022-08-04T13:03:09.844Z,76.00
2022-08-04T13:05:40.354Z,73.58
2022-08-04T13:08:09.386Z,72.39
2022-08-04T13:10:41.434Z,73.10
2022-08-04T13:13:14.159Z,74.07
2022-08-04T13:15:47.185Z,75.36
2022-08-04T13:18:29.567Z,74.51
2022-08-04T13:21:21.242Z,74.64
2022-08-04T13:24:09.892Z,72.55
2022-08-04T13:26:55.501Z,77.57
2022-08-04T13:29:59.371Z,82.10
2022-08-04T13:32:17.374Z,88.64
2022-08-04T13:34:49.623Z,88.44
2022-08-04T13:37:26.778Z,90.20
2022-08-04T13:39:56.575Z,88.25
2022-08-04T13:42:28.140Z,88.19
2022-08-04T13:44:58.103Z,87.20
2022-08-04T13:47:28.806Z,85.33
2022-08-04T13:50:14.905Z,77.08
2022-08-04T13:52:43.755Z,77.18
2022-08-04T13:55:20.231Z,81.09
2022-08-04T13:57:51.806Z,85.54
2022-08-04T14:00:29.425Z,87.99
2022-08-04T14:03:02.683Z,90.67
2022-08-04T14:05:36.939Z,91.84
2022-08-04T14:08:25.182Z,91.08
2022-08-04T14:10:56.969Z,90.92
2022-08-04T14:13:40.941Z,90.35
2022-08-04T14:16:17.785Z,93.56
2022-08-04T14:18:46.211Z,92.25
2022-08-04T14:21:15.033Z,90.71
2022-08-04T14:23:48.152Z,86.16
2022-08-04T14:26:32.501Z,87.34
2022-08-04T14:29:27.533Z,88.02
2022-08-04T14:32:05.550Z,85.43
2022-08-04T14:34:41.554Z,87.68
2022-08-04T14:37:17.570Z,88.14
2022-08-04T14:40:17.437Z,89.55
2022-08-04T14:42:44.118Z,91.10
2022-08-04T14:45:14.135Z,94.05
2022-08-04T14:47:52.026Z,97.74
2022-08-04T14:50:21.838Z,99.96
2022-08-04T14:52:50.122Z,100.00
2022-08-04T14:55:19.592Z,100.00
2022-08-04T14:58:36.459Z,100.00
2022-08-04T15:00:38.445Z,100.00
2022-08-04T15:03:08.793Z,98.60
2022-08-04T15:05:55.021Z,99.89
2022-08-04T15:08:29.044Z,93.88
2022-08-04T15:10:59.984Z,95.15
2022-08-04T15:13:28.618Z,95.34
2022-08-04T15:16:06.953Z,94.10
2022-08-04T15:18:37.357Z,95.03
2022-08-04T15:21:05.963Z,94.72
2022-08-04T15:23:39.354Z,93.07
2022-08-04T15:26:13.693Z,94.80
2022-08-04T15:28:44.028Z,99.54
2022-08-04T15:32:06.266Z,97.14
2022-08-04T15:34:02.594Z,98.49
2022-08-04T15:36:38.037Z,99.66
2022-08-04T15:39:12.032Z,100.00
2022-08-04T15:41:55.043Z,100.00
2022-08-04T15:44:41.722Z,100.00
2022-08-04T15:47:16.084Z,100.00
2022-08-04T15:49:44.706Z,100.00
2022-08-04T15:52:15.983Z,100.00
2022-08-04T15:54:52.051Z,99.40
2022-08-04T15:57:38.415Z,100.00
2022-08-04T16:00:12.808Z,100.00
2022-08-04T16:02:45.043Z,100.00
2022-08-04T16:05:35.800Z,100.00
2022-08-04T16:08:14.177Z,100.00
2022-08-04T16:10:43.323Z,100.00
2022-08-04T16:13:14.147Z,100.00
2022-08-04T16:15:43.567Z,100.00
2022-08-04T16:18:26.736Z,100.00
2022-08-04T16:20:59.043Z,100.00
2022-08-04T16:24:00.623Z,100.00
2022-08-04T16:26:54.821Z,100.00
2022-08-04T16:29:46.976Z,100.00
2022-08-04T16:32:22.996Z,100.00
2022-08-04T16:34:58.963Z,100.00
2022-08-04T16:37:31.555Z,100.00
2022-08-04T16:40:18.647Z,100.00
2022-08-04T16:42:46.813Z,100.00
2022-08-04T16:45:15.803Z,100.00
2022-08-04T16:48:04.310Z,100.00
2022-08-04T16:50:34.313Z,100.00
2022-08-04T16:53:14.530Z,100.00
2022-08-04T16:55:59.322Z,100.00
2022-08-04T16:58:29.862Z,100.00
2022-08-04T17:01:08.475Z,100.00
2022-08-04T17:03:38.751Z,100.00
2022-08-04T17:06:09.575Z,100.00
2022-08-04T17:08:38.357Z,100.00
2022-08-04T17:11:06.940Z,100.00
2022-08-04T17:14:03.882Z,100.00
2022-08-04T17:16:25.571Z,100.00
2022-08-04T17:18:54.706Z,100.00
2022-08-04T17:21:25.899Z,100.00
2022-08-04T17:24:12.948Z,100.00
2022-08-04T17:29:43.286Z,100.00
2022-08-04T17:32:18.798Z,100.00
2022-08-04T17:34:50.524Z,100.00
2022-08-04T17:37:38.979Z,100.00
2022-08-04T17:40:10.805Z,100.00
2022-08-04T17:42:41.934Z,100.00
2022-08-04T17:45:50.295Z,100.00
2022-08-04T17:48:00.611Z,100.00
2022-08-04T17:50:35.132Z,100.00
2022-08-04T17:53:11.267Z,100.00
2022-08-04T17:55:42.476Z,100.00
2022-08-04T17:58:21.165Z,100.00
2022-08-04T18:00:57.628Z,100.00
2022-08-04T18:03:39.040Z,100.00
2022-08-04T18:06:12.530Z,100.00
2022-08-04T18:08:45.960Z,100.00
2022-08-04T18:11:22.231Z,100.00
2022-08-04T18:13:56.930Z,100.00
2022-08-04T18:16:27.357Z,100.00
2022-08-04T18:19:11.691Z,100.00
2022-08-04T18:24:35.544Z,100.00
2022-08-04T18:27:18.683Z,100.00
2022-08-04T18:30:15.128Z,100.00
2022-08-04T18:32:35.842Z,100.00
2022-08-04T18:35:05.596Z,100.00
2022-08-04T18:38:06.679Z,100.00
2022-08-04T18:40:33.227Z,100.00
2022-08-04T18:43:14.365Z,100.00
2022-08-04T18:45:51.332Z,100.00
2022-08-04T18:48:19.954Z,100.00
2022-08-04T18:51:10.059Z,100.00
2022-08-04T18:53:36.310Z,100.00
2022-08-04T18:56:19.844Z,100.00
2022-08-04T18:58:54.946Z,100.00
2022-08-04T19:01:29.584Z,100.00
2022-08-04T19:03:58.721Z,100.00
2022-08-04T19:06:27.605Z,100.00
2022-08-04T19:08:55.771Z,100.00
2022-08-04T19:11:54.255Z,100.00
2022-08-04T19:14:14.190Z,100.00
2022-08-04T19:16:45.866Z,100.00
2022-08-04T19:19:15.371Z,100.00
2022-08-04T19:22:00.683Z,100.00
2022-08-04T19:24:34.181Z,100.00
2022-08-04T19:27:09.145Z,100.00
2022-08-04T19:29:40.632Z,100.00
2022-08-04T19:32:14.712Z,100.00
2022-08-04T19:34:46.372Z,100.00
2022-08-04T19:37:56.173Z,100.00
2022-08-04T19:40:06.633Z,100.00
2022-08-04T19:42:42.134Z,100.00
2022-08-04T19:45:15.693Z,100.00
2022-08-04T19:48:12.093Z,100.00
2022-08-04T19:50:38.166Z,100.00
2022-08-04T19:53:18.804Z,100.00
2022-08-04T19:55:54.332Z,100.00
2022-08-04T19:58:28.087Z,100.00
2022-08-04T20:00:58.523Z,100.00
2022-08-04T20:04:09.673Z,100.00
2022-08-04T20:06:24.571Z,100.00
2022-08-04T20:08:58.981Z,100.00
2022-08-04T20:11:33.633Z,100.00
2022-08-04T20:14:09.609Z,100.00
2022-08-04T20:16:43.549Z,100.00
2022-08-04T20:19:14.976Z,100.00
2022-08-04T20:21:55.414Z,100.00
2022-08-04T20:24:36.542Z,100.00
2022-08-04T20:27:16.095Z,100.00
2022-08-04T20:29:51.911Z,100.00
2022-08-04T20:32:28.885Z,100.00
2022-08-04T20:34:59.416Z,100.00
2022-08-04T20:37:56.886Z,100.00
2022-08-04T20:40:23.756Z,100.00
2022-08-04T20:42:57.617Z,100.00
2022-08-04T20:45:56.823Z,100.00
2022-08-04T20:48:25.678Z,100.00
2022-08-04T20:50:59.542Z,100.00
2022-08-04T20:53:46.645Z,100.00
2022-08-04T20:56:30.212Z,100.00
2022-08-04T20:59:07.886Z,100.00
2022-08-04T21:01:39.766Z,100.00
2022-08-04T21:04:32.684Z,100.00
2022-08-04T21:07:03.703Z,100.00
2022-08-04T21:09:38.241Z,100.00
2022-08-04T21:12:27.482Z,100.00
2022-08-04T21:15:13.736Z,100.00
2022-08-04T21:17:57.012Z,100.00
2022-08-04T21:20:29.910Z,100.00
2022-08-04T21:23:01.963Z,100.00
2022-08-04T21:25:33.045Z,100.00
2022-08-04T21:28:12.248Z,100.00
2022-08-04T21:30:52.899Z,100.00
2022-08-04T21:33:49.667Z,100.00
2022-08-04T21:36:19.956Z,100.00
2022-08-04T21:38:51.500Z,100.00
2022-08-04T21:41:24.622Z,100.00
2022-08-04T21:43:58.941Z,100.00
2022-08-04T21:46:30.002Z,100.00
2022-08-04T21:48:59.983Z,100.00
2022-08-04T21:51:57.774Z,100.00
2022-08-04T21:54:20.294Z,100.00
2022-08-04T21:56:51.004Z,100.00
2022-08-04T21:59:23.254Z,100.00
2022-08-04T22:01:56.651Z,100.00
2022-08-04T22:04:27.717Z,100.00
2022-08-04T22:07:02.886Z,100.00
2022-08-04T22:09:41.064Z,100.00
2022-08-04T22:12:12.447Z,100.00
2022-08-04T22:14:50.245Z,100.00
2022-08-04T22:17:20.342Z,100.00
2022-08-04T22:19:56.639Z,100.00
2022-08-04T22:22:31.389Z,100.00
2022-08-04T22:28:02.740Z,100.00
2022-08-04T22:30:36.973Z,100.00
2022-08-04T22:33:08.402Z,100.00
2022-08-04T22:35:44.087Z,100.00
2022-08-04T22:38:34.856Z,100.00
2022-08-04T22:41:14.459Z,100.00
2022-08-04T22:43:54.915Z,100.00
2022-08-04T22:46:29.811Z,100.00
2022-08-04T22:49:03.938Z,100.00
2022-08-04T22:51:50.688Z,100.00
2022-08-04T22:54:23.612Z,100.00
2022-08-04T22:57:01.754Z,100.00
2022-08-04T22:59:36.323Z,100.00
2022-08-04T23:02:09.398Z,100.00
2022-08-04T23:04:37.679Z,100.00
2022-08-04T23:07:15.287Z,100.00
2022-08-04T23:09:51.105Z,100.00
2022-08-04T23:12:25.980Z,100.00
2022-08-04T23:15:04.397Z,100.00
2022-08-04T23:17:43.803Z,100.00
2022-08-04T23:20:23.691Z,100.00
2022-08-04T23:23:12.357Z,100.00
2022-08-04T23:26:08.196Z,100.00
2022-08-04T23:28:43.338Z,100.00
2022-08-04T23:31:19.749Z,100.00
2022-08-04T23:33:54.555Z,100.00
2022-08-04T23:36:30.858Z,100.00
2022-08-04T23:39:12.106Z,100.00
2022-08-04T23:41:53.790Z,100.00
2022-08-04T23:44:32.286Z,100.00
2022-08-04T23:47:03.293Z,100.00
2022-08-04T23:49:44.017Z,100.00
2022-08-04T23:52:15.762Z,100.00
2022-08-04T23:54:58.339Z,100.00
2022-08-04T23:58:02.250Z,100.00
